Oakwood, Oklahoma
Current Conditions -  °F | °C
As of 3:55 AM on Saturday 29 Nov 2014 (Local Time) from KJWG Reporting Station
Clear Clear  
Wind Chill: 51°   Ceiling: Unl
Heat Index: 51°   Visibility: 10mi
Dew Point: 39°   Wind: 9mph
Humidity: 63%   Direction: 190°S
Pressure: 29.73"   Gusts: 16mph
Location:  35.93°N, 98.71°W
Report Text: KJWG 290955Z AUTO 19008G14KT 10SM CLR 11/04 A2973 RMK AO2 T01050038
Loading
Personal Weather Stations






























Interactive Weather Map New forecast layout! Learn more

10-Day Weather Forecast

Advertisements
Track Severe Weather on mobile